Time;durP1;ratioP1;P1;durP2;ratioP2;P2;SDS_P1;SDS_P2;PMS_P1;PMS_P2;Temp;Humidity;BMP_temperature;BMP_pressure;BME280_temperature;BME280_humidity;BME280_pressure;Samples;Min_cycle;Max_cycle;Signal;HPM_P1;HPM_P2
2022/04/13 00:00:07;;;;;;;6.10;2.15;;;;;;;;;;2078339;28;20034;-82
2022/04/13 00:01:26;;;;;;;11.77;2.00;;;;;;;;;;2086633;28;20132;-82
2022/04/13 00:02:45;;;;;;;3.08;1.50;;;;;;;;;;2084469;28;20394;-83
2022/04/13 00:04:04;;;;;;;10.68;2.20;;;;;;;;;;2081585;28;20052;-83
2022/04/13 00:05:23;;;;;;;5.22;1.70;;;;;;;;;;2078327;28;20038;-83
2022/04/13 00:06:42;;;;;;;8.68;1.55;;;;;;;;;;2085853;28;20029;-83
2022/04/13 00:08:05;;;;;;;6.75;1.50;;;;;;;;;;2079907;28;20033;-83
2022/04/13 00:09:25;;;;;;;7.80;1.63;;;;;;;;;;2082362;28;20495;-82
2022/04/13 00:10:44;;;;;;;8.32;1.65;;;;;;;;;;2080423;28;20441;-82
2022/04/13 00:12:04;;;;;;;9.95;1.83;;;;;;;;;;2080695;28;20034;-82
2022/04/13 00:13:23;;;;;;;5.63;1.83;;;;;;;;;;2085616;28;20088;-83
2022/04/13 00:14:42;;;;;;;9.23;1.75;;;;;;;;;;2082758;28;20026;-83
2022/04/13 00:16:00;;;;;;;6.00;1.60;;;;;;;;;;2077791;28;20041;-83
2022/04/13 00:17:20;;;;;;;7.03;1.90;;;;;;;;;;2078509;28;20045;-83
2022/04/13 00:18:39;;;;;;;4.05;1.60;;;;;;;;;;2080779;28;20057;-82
2022/04/13 00:19:58;;;;;;;4.93;1.60;;;;;;;;;;2081480;28;20505;-83
2022/04/13 00:21:18;;;;;;;7.97;1.70;;;;;;;;;;2078545;28;20033;-83
2022/04/13 00:22:36;;;;;;;10.38;1.80;;;;;;;;;;2081478;28;20029;-83
2022/04/13 00:23:56;;;;;;;7.18;1.98;;;;;;;;;;2077109;28;20033;-82
2022/04/13 00:25:15;;;;;;;6.28;1.42;;;;;;;;;;2078993;28;20033;-83
2022/04/13 00:26:35;;;;;;;9.20;2.20;;;;;;;;;;2077556;28;20033;-83
2022/04/13 00:27:54;;;;;;;5.13;1.85;;;;;;;;;;2078104;28;20045;-83
2022/04/13 00:29:13;;;;;;;5.30;1.63;;;;;;;;;;2078178;28;20041;-83
2022/04/13 00:30:32;;;;;;;8.48;2.30;;;;;;;;;;2078550;28;20100;-83
2022/04/13 00:31:52;;;;;;;5.80;2.25;;;;;;;;;;2078317;28;20030;-82
2022/04/13 00:33:11;;;;;;;8.35;2.10;;;;;;;;;;2078319;28;20065;-83
2022/04/13 00:34:30;;;;;;;11.98;2.88;;;;;;;;;;2078410;28;20021;-83
2022/04/13 00:35:49;;;;;;;5.57;2.28;;;;;;;;;;2083223;28;20506;-83
2022/04/13 00:37:08;;;;;;;7.35;2.00;;;;;;;;;;2085444;28;20017;-83
2022/04/13 00:38:27;;;;;;;9.98;2.20;;;;;;;;;;2079805;28;20442;-83
2022/04/13 00:39:46;;;;;;;5.45;2.17;;;;;;;;;;2087523;28;20032;-83
2022/04/13 00:41:05;;;;;;;9.05;1.65;;;;;;;;;;2088996;28;20025;-83
2022/04/13 00:42:24;;;;;;;7.80;1.98;;;;;;;;;;2090230;28;20147;-83
2022/04/13 00:43:43;;;;;;;9.30;1.70;;;;;;;;;;2079299;28;20041;-82
2022/04/13 00:45:05;;;;;;;13.40;2.10;;;;;;;;;;2079100;28;20137;-83
2022/04/13 00:46:24;;;;;;;3.88;1.42;;;;;;;;;;2078021;28;20030;-83
2022/04/13 00:47:44;;;;;;;8.38;1.70;;;;;;;;;;2079097;28;20025;-83
2022/04/13 00:49:04;;;;;;;8.27;2.00;;;;;;;;;;2085296;28;20398;-83
2022/04/13 00:50:24;;;;;;;12.75;1.70;;;;;;;;;;2081969;28;20029;-83
2022/04/13 00:51:48;;;;;;;4.47;2.08;;;;;;;;;;2078661;28;20026;-83
2022/04/13 00:53:10;;;;;;;10.75;1.80;;;;;;;;;;2079623;28;20034;-84
2022/04/13 00:54:30;;;;;;;11.18;2.08;;;;;;;;;;2079061;28;20021;-83
2022/04/13 00:55:49;;;;;;;7.45;1.50;;;;;;;;;;2087154;28;20033;-82
2022/04/13 00:57:09;;;;;;;9.93;2.00;;;;;;;;;;2089520;28;20068;-82
2022/04/13 00:58:31;;;;;;;9.88;1.60;;;;;;;;;;2073686;28;20049;-84
2022/04/13 00:59:53;;;;;;;6.82;1.90;;;;;;;;;;2075939;28;20507;-83
2022/04/13 01:01:13;;;;;;;4.05;1.55;;;;;;;;;;2078081;28;20033;-82
2022/04/13 01:02:32;;;;;;;11.60;2.00;;;;;;;;;;2087243;28;20021;-83
2022/04/13 01:03:54;;;;;;;8.95;1.95;;;;;;;;;;2080073;28;20037;-82
2022/04/13 01:05:14;;;;;;;9.30;1.90;;;;;;;;;;2076978;28;20029;-83
2022/04/13 01:06:33;;;;;;;12.38;1.48;;;;;;;;;;2084932;28;20437;-83
2022/04/13 01:07:55;;;;;;;14.10;2.22;;;;;;;;;;2082941;28;20052;-82
2022/04/13 01:09:15;;;;;;;7.67;1.50;;;;;;;;;;2078162;28;20029;-82
2022/04/13 01:10:36;;;;;;;14.70;2.47;;;;;;;;;;2078761;28;20247;-83
2022/04/13 01:11:56;;;;;;;6.53;2.05;;;;;;;;;;2077952;28;20037;-83
2022/04/13 01:13:15;;;;;;;6.97;2.42;;;;;;;;;;2083062;28;20398;-83
2022/04/13 01:14:35;;;;;;;10.57;2.60;;;;;;;;;;2076926;28;20411;-83
2022/04/13 01:15:56;;;;;;;13.25;2.70;;;;;;;;;;2078267;28;20021;-82
2022/04/13 01:17:15;;;;;;;9.15;2.03;;;;;;;;;;2078022;28;20627;-83
2022/04/13 01:18:34;;;;;;;11.65;2.42;;;;;;;;;;2077562;28;20026;-83
2022/04/13 01:19:54;;;;;;;5.53;1.90;;;;;;;;;;2084081;28;20053;-83
2022/04/13 01:21:15;;;;;;;6.50;2.13;;;;;;;;;;2082254;28;20025;-83
2022/04/13 01:22:34;;;;;;;8.57;1.90;;;;;;;;;;2085087;28;20021;-83
2022/04/13 01:23:54;;;;;;;6.78;1.88;;;;;;;;;;2082282;28;20108;-83
2022/04/13 01:25:13;;;;;;;8.45;1.42;;;;;;;;;;2086037;28;20037;-82
2022/04/13 01:26:32;;;;;;;5.60;1.60;;;;;;;;;;2081828;28;20034;-83
2022/04/13 01:27:50;;;;;;;6.60;2.00;;;;;;;;;;2086875;28;20029;-83
2022/04/13 01:29:10;;;;;;;11.98;1.88;;;;;;;;;;2080443;28;20034;-82
2022/04/13 01:30:29;;;;;;;6.60;1.58;;;;;;;;;;2077684;28;20037;-83
2022/04/13 01:31:49;;;;;;;9.73;2.08;;;;;;;;;;2076813;28;20022;-83
2022/04/13 01:33:08;;;;;;;14.27;1.90;;;;;;;;;;2078430;28;20465;-83
2022/04/13 01:34:28;;;;;;;12.18;2.17;;;;;;;;;;2085528;28;20037;-83
2022/04/13 01:35:47;;;;;;;8.98;1.75;;;;;;;;;;2081877;28;20037;-82
2022/04/13 01:37:06;;;;;;;7.57;1.83;;;;;;;;;;2077720;28;20514;-83
2022/04/13 01:38:25;;;;;;;10.75;1.80;;;;;;;;;;2078805;28;20030;-83
2022/04/13 01:39:44;;;;;;;3.92;1.83;;;;;;;;;;2086171;28;20017;-83
2022/04/13 01:41:03;;;;;;;9.20;1.77;;;;;;;;;;2083526;28;20518;-83
2022/04/13 01:42:22;;;;;;;7.13;1.50;;;;;;;;;;2083656;28;20029;-83
2022/04/13 01:43:41;;;;;;;7.32;1.52;;;;;;;;;;2083937;28;20005;-84
2022/04/13 01:45:00;;;;;;;7.45;1.50;;;;;;;;;;2087190;28;20112;-84
2022/04/13 01:46:19;;;;;;;5.95;1.20;;;;;;;;;;2083304;28;20033;-83
2022/04/13 01:47:38;;;;;;;7.93;1.60;;;;;;;;;;2087615;28;20033;-83
2022/04/13 01:48:57;;;;;;;3.13;1.25;;;;;;;;;;2083679;28;20033;-84
2022/04/13 01:50:17;;;;;;;7.13;1.85;;;;;;;;;;2086699;28;20056;-84
2022/04/13 01:51:36;;;;;;;6.95;1.70;;;;;;;;;;2091829;28;20033;-83
2022/04/13 01:52:55;;;;;;;3.55;1.35;;;;;;;;;;2082752;28;20033;-83
2022/04/13 01:54:15;;;;;;;4.97;1.52;;;;;;;;;;2079830;28;20034;-83
2022/04/13 01:55:33;;;;;;;3.78;1.52;;;;;;;;;;2087601;28;20045;-83
2022/04/13 01:56:55;;;;;;;7.60;1.75;;;;;;;;;;2083435;28;20033;-84
2022/04/13 01:58:16;;;;;;;8.43;1.52;;;;;;;;;;2086816;28;20033;-84
2022/04/13 01:59:36;;;;;;;19.30;1.83;;;;;;;;;;2082724;28;20558;-83
2022/04/13 02:00:55;;;;;;;5.55;1.80;;;;;;;;;;2086369;28;20490;-84
2022/04/13 02:02:21;;;;;;;6.65;1.77;;;;;;;;;;2081124;28;20034;-83
2022/04/13 02:03:40;;;;;;;8.90;1.83;;;;;;;;;;2080738;28;20026;-83
2022/04/13 02:04:59;;;;;;;4.43;1.45;;;;;;;;;;2078805;28;20129;-83
2022/04/13 02:06:19;;;;;;;11.40;2.03;;;;;;;;;;2086798;28;20037;-84
2022/04/13 02:07:38;;;;;;;4.00;1.88;;;;;;;;;;2082270;28;20498;-83
2022/04/13 02:08:57;;;;;;;8.43;2.33;;;;;;;;;;2079580;28;20120;-83
2022/04/13 02:10:17;;;;;;;9.95;2.25;;;;;;;;;;2086477;28;20428;-83
2022/04/13 02:11:35;;;;;;;8.50;2.17;;;;;;;;;;2091489;28;20029;-84
2022/04/13 02:12:54;;;;;;;11.00;2.50;;;;;;;;;;2082267;28;20032;-83
2022/04/13 02:14:13;;;;;;;11.88;2.28;;;;;;;;;;2089498;28;20051;-84
2022/04/13 02:15:32;;;;;;;6.30;2.17;;;;;;;;;;2081397;28;20021;-84
2022/04/13 02:16:51;;;;;;;8.05;2.40;;;;;;;;;;2083413;28;20033;-83
2022/04/13 02:18:10;;;;;;;10.45;2.42;;;;;;;;;;2079316;28;20021;-83
2022/04/13 02:19:29;;;;;;;12.30;2.05;;;;;;;;;;2081885;28;20033;-83
2022/04/13 02:20:47;;;;;;;7.55;1.98;;;;;;;;;;2078565;28;20033;-83
2022/04/13 02:22:07;;;;;;;10.93;2.30;;;;;;;;;;2080539;28;20426;-83
2022/04/13 02:23:26;;;;;;;8.23;2.00;;;;;;;;;;2079054;28;20049;-83
2022/04/13 02:24:45;;;;;;;8.73;2.45;;;;;;;;;;2080241;28;20033;-83
2022/04/13 02:26:04;;;;;;;10.73;2.05;;;;;;;;;;2079530;28;20117;-83
2022/04/13 02:27:24;;;;;;;7.85;2.40;;;;;;;;;;2081300;28;20070;-83
2022/04/13 02:28:43;;;;;;;4.05;1.90;;;;;;;;;;2079064;28;20033;-83
2022/04/13 02:30:03;;;;;;;11.20;2.03;;;;;;;;;;2081033;28;20033;-83
2022/04/13 02:31:22;;;;;;;11.65;2.25;;;;;;;;;;2078613;28;20457;-83
2022/04/13 02:32:44;;;;;;;8.85;2.45;;;;;;;;;;2079362;28;20033;-83
2022/04/13 02:34:04;;;;;;;4.90;2.42;;;;;;;;;;2082191;28;20034;-83
2022/04/13 02:35:23;;;;;;;9.98;2.83;;;;;;;;;;2082113;28;20051;-82
2022/04/13 02:36:42;;;;;;;12.57;2.20;;;;;;;;;;2082058;28;20037;-83
2022/04/13 02:38:01;;;;;;;8.65;2.88;;;;;;;;;;2082443;28;20041;-82
2022/04/13 02:39:20;;;;;;;4.43;1.85;;;;;;;;;;2078636;28;20056;-83
2022/04/13 02:40:39;;;;;;;7.70;2.30;;;;;;;;;;2085906;28;20025;-83
2022/04/13 02:41:58;;;;;;;6.03;1.95;;;;;;;;;;2082260;28;20033;-83
2022/04/13 02:43:24;;;;;;;11.95;2.55;;;;;;;;;;2076698;28;20124;-83
2022/04/13 02:44:43;;;;;;;6.80;1.38;;;;;;;;;;2083245;28;20017;-83
2022/04/13 02:46:02;;;;;;;7.32;1.77;;;;;;;;;;2082274;28;20018;-83
2022/04/13 02:47:21;;;;;;;12.02;2.05;;;;;;;;;;2078997;28;20033;-83
2022/04/13 02:48:40;;;;;;;7.00;1.67;;;;;;;;;;2078009;28;20033;-83
2022/04/13 02:50:02;;;;;;;5.75;1.80;;;;;;;;;;2079380;28;20811;-83
2022/04/13 02:51:21;;;;;;;7.25;1.55;;;;;;;;;;2081196;28;20106;-83
2022/04/13 02:52:43;;;;;;;7.93;1.90;;;;;;;;;;2090362;28;20103;-82
2022/04/13 02:54:03;;;;;;;6.75;1.42;;;;;;;;;;2081573;28;20570;-83
2022/04/13 02:55:22;;;;;;;10.32;1.58;;;;;;;;;;2079946;28;20022;-82
2022/04/13 02:56:41;;;;;;;3.63;1.52;;;;;;;;;;2078682;28;20022;-83
2022/04/13 02:58:00;;;;;;;7.13;1.30;;;;;;;;;;2079764;28;20026;-84
2022/04/13 02:59:19;;;;;;;4.82;1.50;;;;;;;;;;2080930;28;20029;-83
2022/04/13 03:00:38;;;;;;;3.85;1.30;;;;;;;;;;2082606;28;20029;-83
2022/04/13 03:01:57;;;;;;;6.88;1.35;;;;;;;;;;2077703;28;20612;-82
2022/04/13 03:03:16;;;;;;;10.05;1.75;;;;;;;;;;2087339;28;20025;-83
2022/04/13 03:04:35;;;;;;;7.47;1.42;;;;;;;;;;2082416;28;20113;-83
2022/04/13 03:05:54;;;;;;;8.25;2.00;;;;;;;;;;2082242;28;20038;-83
2022/04/13 03:07:14;;;;;;;11.93;1.83;;;;;;;;;;2083057;28;20507;-83
2022/04/13 03:08:33;;;;;;;9.18;1.58;;;;;;;;;;2083088;28;20037;-83
2022/04/13 03:09:52;;;;;;;4.88;1.30;;;;;;;;;;2087564;28;20017;-82
2022/04/13 03:11:15;;;;;;;5.45;1.70;;;;;;;;;;2081263;28;20029;-83
2022/04/13 03:12:34;;;;;;;11.48;1.50;;;;;;;;;;2080129;28;20033;-83
2022/04/13 03:13:53;;;;;;;7.25;1.35;;;;;;;;;;2079297;28;20038;-83
2022/04/13 03:15:13;;;;;;;11.80;1.55;;;;;;;;;;2087705;28;20574;-83
2022/04/13 03:16:32;;;;;;;4.05;1.17;;;;;;;;;;2090440;28;20025;-82
2022/04/13 03:17:51;;;;;;;6.93;1.58;;;;;;;;;;2083456;28;20025;-83
2022/04/13 03:19:10;;;;;;;4.03;1.10;;;;;;;;;;2079054;28;20029;-83
2022/04/13 03:20:29;;;;;;;4.60;1.50;;;;;;;;;;2086994;28;20028;-83
2022/04/13 03:21:51;;;;;;;3.20;1.50;;;;;;;;;;2081560;28;20049;-83
2022/04/13 03:23:10;;;;;;;4.13;2.00;;;;;;;;;;2079962;28;20037;-83
2022/04/13 03:24:29;;;;;;;7.45;1.98;;;;;;;;;;2078761;28;20450;-83
2022/04/13 03:25:48;;;;;;;3.40;1.60;;;;;;;;;;2078925;28;20030;-83
2022/04/13 03:27:08;;;;;;;5.28;1.98;;;;;;;;;;2079432;28;20093;-83
2022/04/13 03:28:26;;;;;;;6.80;2.03;;;;;;;;;;2079227;28;20029;-83
2022/04/13 03:29:46;;;;;;;8.85;1.83;;;;;;;;;;2079130;28;20030;-83
2022/04/13 03:31:05;;;;;;;17.83;1.85;;;;;;;;;;2078444;28;20026;-83
2022/04/13 03:32:23;;;;;;;11.90;1.75;;;;;;;;;;2078385;28;20030;-83
2022/04/13 03:33:42;;;;;;;4.55;1.40;;;;;;;;;;2078195;28;20033;-83
2022/04/13 03:35:02;;;;;;;2.92;1.15;;;;;;;;;;2079005;28;20053;-83
2022/04/13 03:36:21;;;;;;;5.65;1.42;;;;;;;;;;2080157;28;20041;-83
2022/04/13 03:37:40;;;;;;;9.35;1.27;;;;;;;;;;2082037;28;20030;-83
2022/04/13 03:38:59;;;;;;;3.92;1.20;;;;;;;;;;2077084;28;20042;-83
2022/04/13 03:40:18;;;;;;;5.53;1.70;;;;;;;;;;2087290;28;20502;-83
2022/04/13 03:41:37;;;;;;;5.30;1.23;;;;;;;;;;2083811;28;20037;-83
2022/04/13 03:42:56;;;;;;;6.40;1.50;;;;;;;;;;2081644;28;20025;-83
2022/04/13 03:44:15;;;;;;;6.15;1.27;;;;;;;;;;2080995;28;20029;-83
2022/04/13 03:45:34;;;;;;;6.97;1.33;;;;;;;;;;2078902;28;20056;-83
2022/04/13 03:46:52;;;;;;;3.85;1.67;;;;;;;;;;2081117;28;20033;-83
2022/04/13 03:48:11;;;;;;;1.83;1.25;;;;;;;;;;2082946;28;20030;-83
2022/04/13 03:49:30;;;;;;;8.27;1.55;;;;;;;;;;2090525;28;20033;-82
2022/04/13 03:50:50;;;;;;;8.88;1.80;;;;;;;;;;2082489;28;20100;-83
2022/04/13 03:52:09;;;;;;;4.25;1.80;;;;;;;;;;2080915;28;20029;-82
2022/04/13 03:53:30;;;;;;;4.13;1.42;;;;;;;;;;2078740;28;20072;-82
2022/04/13 03:54:49;;;;;;;5.75;1.90;;;;;;;;;;2078144;28;20505;-83
2022/04/13 03:56:11;;;;;;;5.22;1.33;;;;;;;;;;2078757;28;20038;-83
2022/04/13 03:57:32;;;;;;;4.43;1.98;;;;;;;;;;2087173;28;20033;-82
2022/04/13 03:58:51;;;;;;;13.35;3.10;;;;;;;;;;2082705;28;20034;-82
2022/04/13 04:00:10;;;;;;;14.02;3.45;;;;;;;;;;2078405;28;20108;-82
2022/04/13 04:01:30;;;;;;;7.07;1.70;;;;;;;;;;2076297;28;20053;-82
2022/04/13 04:02:49;;;;;;;10.90;1.58;;;;;;;;;;2078680;28;20042;-82
2022/04/13 04:04:10;;;;;;;4.32;1.50;;;;;;;;;;2087733;28;20432;-82
2022/04/13 04:05:29;;;;;;;14.35;1.70;;;;;;;;;;2090158;28;20037;-82
2022/04/13 04:06:48;;;;;;;10.52;1.88;;;;;;;;;;2081982;28;20060;-83
2022/04/13 04:08:07;;;;;;;8.82;1.73;;;;;;;;;;2078496;28;20057;-82
2022/04/13 04:09:26;;;;;;;5.35;1.60;;;;;;;;;;2082839;28;20029;-83
2022/04/13 04:10:45;;;;;;;7.70;1.95;;;;;;;;;;2083419;28;20029;-82
2022/04/13 04:12:04;;;;;;;7.38;1.80;;;;;;;;;;2080203;28;20426;-84
2022/04/13 04:13:24;;;;;;;13.45;2.45;;;;;;;;;;2083282;28;20475;-84
2022/04/13 04:14:42;;;;;;;15.60;1.90;;;;;;;;;;2086882;28;20033;-82
2022/04/13 04:16:01;;;;;;;15.45;2.13;;;;;;;;;;2083591;28;20025;-84
2022/04/13 04:17:20;;;;;;;9.82;3.97;;;;;;;;;;2085400;28;20561;-82
2022/04/13 04:18:39;;;;;;;21.77;6.45;;;;;;;;;;2084079;28;20030;-85
2022/04/13 04:19:59;;;;;;;51.88;25.90;;;;;;;;;;2081076;28;20034;-82
2022/04/13 04:21:18;;;;;;;16.10;5.40;;;;;;;;;;2079976;28;20025;-85
2022/04/13 04:22:37;;;;;;;10.32;3.28;;;;;;;;;;2085814;28;20025;-87
2022/04/13 04:23:56;;;;;;;10.20;2.67;;;;;;;;;;2084077;28;20414;-83
2022/04/13 04:25:15;;;;;;;9.50;3.00;;;;;;;;;;2079147;28;20057;-82
2022/04/13 04:26:34;;;;;;;6.80;1.70;;;;;;;;;;2077407;28;20668;-82
2022/04/13 04:27:53;;;;;;;4.97;1.67;;;;;;;;;;2070576;28;20121;-87
2022/04/13 04:29:15;;;;;;;7.28;1.55;;;;;;;;;;2084695;28;20068;-85
2022/04/13 04:30:36;;;;;;;7.50;1.73;;;;;;;;;;2080879;28;20029;-85
2022/04/13 04:31:58;;;;;;;8.18;1.75;;;;;;;;;;2079105;28;20026;-84
2022/04/13 04:33:17;;;;;;;6.93;1.85;;;;;;;;;;2079102;28;20057;-85
2022/04/13 04:34:36;;;;;;;7.93;2.15;;;;;;;;;;2081151;28;20025;-85
2022/04/13 04:35:54;;;;;;;6.93;1.40;;;;;;;;;;2086742;28;20045;-86
2022/04/13 04:37:13;;;;;;;10.77;2.15;;;;;;;;;;2081211;28;20021;-87
2022/04/13 04:38:32;;;;;;;8.25;1.60;;;;;;;;;;2081396;28;20021;-85
2022/04/13 04:39:51;;;;;;;15.50;2.00;;;;;;;;;;2081682;28;20029;-84
2022/04/13 04:41:10;;;;;;;8.25;2.35;;;;;;;;;;2082129;28;20037;-84
2022/04/13 04:42:29;;;;;;;3.53;1.95;;;;;;;;;;2086316;28;20024;-83
2022/04/13 04:43:48;;;;;;;10.40;1.75;;;;;;;;;;2083409;28;20506;-83
2022/04/13 04:45:07;;;;;;;4.40;1.80;;;;;;;;;;2080906;28;20030;-83
2022/04/13 04:46:26;;;;;;;10.13;1.73;;;;;;;;;;2088869;28;20128;-84
2022/04/13 04:47:46;;;;;;;10.45;1.95;;;;;;;;;;2080131;28;20033;-85
2022/04/13 04:49:08;;;;;;;7.68;1.83;;;;;;;;;;2082936;28;20025;-85
2022/04/13 04:50:27;;;;;;;4.00;1.58;;;;;;;;;;2078217;28;20092;-85
2022/04/13 04:51:47;;;;;;;18.73;2.28;;;;;;;;;;2083082;28;20029;-85
2022/04/13 04:53:06;;;;;;;10.48;1.80;;;;;;;;;;2081116;28;20108;-84
2022/04/13 04:54:25;;;;;;;10.20;1.92;;;;;;;;;;2079863;28;20530;-85
2022/04/13 04:55:44;;;;;;;7.05;1.92;;;;;;;;;;2078201;28;20034;-83
2022/04/13 04:57:03;;;;;;;13.18;2.25;;;;;;;;;;2079904;28;20029;-83
2022/04/13 04:58:23;;;;;;;7.50;1.75;;;;;;;;;;2078694;28;20025;-85
2022/04/13 04:59:43;;;;;;;7.38;1.60;;;;;;;;;;2088953;28;20036;-86
2022/04/13 05:01:03;;;;;;;15.63;2.10;;;;;;;;;;2081345;28;20041;-84
2022/04/13 05:02:22;;;;;;;4.38;1.95;;;;;;;;;;2080260;28;20514;-84
2022/04/13 05:03:44;;;;;;;6.80;1.75;;;;;;;;;;2077843;28;20042;-84
2022/04/13 05:05:04;;;;;;;8.20;2.13;;;;;;;;;;2082988;28;20025;-85
2022/04/13 05:06:30;;;;;;;10.27;1.77;;;;;;;;;;2081149;28;20037;-84
2022/04/13 05:07:49;;;;;;;7.13;1.85;;;;;;;;;;2079194;28;20196;-84
2022/04/13 05:09:08;;;;;;;15.60;2.58;;;;;;;;;;2087594;28;20529;-87
2022/04/13 05:10:32;;;;;;;10.35;2.65;;;;;;;;;;2081561;28;20030;-85
2022/04/13 05:11:51;;;;;;;9.88;2.10;;;;;;;;;;2088338;28;20502;-83
2022/04/13 05:13:10;;;;;;;12.20;1.98;;;;;;;;;;2080710;28;20060;-84
2022/04/13 05:14:29;;;;;;;5.78;1.40;;;;;;;;;;2078594;28;20034;-85
2022/04/13 05:15:48;;;;;;;8.27;2.00;;;;;;;;;;2078669;28;20508;-83
2022/04/13 05:17:16;;;;;;;11.73;2.20;;;;;;;;;;2079385;28;20053;-88
2022/04/13 05:18:35;;;;;;;18.63;1.80;;;;;;;;;;2079132;28;20051;-83
2022/04/13 05:19:54;;;;;;;9.20;2.10;;;;;;;;;;2082835;28;20021;-83
2022/04/13 05:21:14;;;;;;;11.23;2.08;;;;;;;;;;2081663;28;20029;-85
2022/04/13 05:22:33;;;;;;;16.83;1.75;;;;;;;;;;2078152;28;20022;-85
2022/04/13 05:23:52;;;;;;;8.88;2.20;;;;;;;;;;2076903;28;20120;-82
2022/04/13 05:25:17;;;;;;;15.25;2.10;;;;;;;;;;2079241;28;20034;-86
2022/04/13 05:26:36;;;;;;;11.20;2.10;;;;;;;;;;2081700;28;20030;-85
2022/04/13 05:27:56;;;;;;;7.97;1.63;;;;;;;;;;2081754;28;20729;-87
2022/04/13 05:29:15;;;;;;;11.38;2.25;;;;;;;;;;2086029;28;20036;-85
2022/04/13 05:30:34;;;;;;;4.38;1.80;;;;;;;;;;2089378;28;20494;-86
2022/04/13 05:31:56;;;;;;;7.55;2.30;;;;;;;;;;2080636;28;20030;-86
2022/04/13 05:33:15;;;;;;;8.18;1.88;;;;;;;;;;2086465;28;20025;-86
2022/04/13 05:34:35;;;;;;;14.80;2.20;;;;;;;;;;2085430;28;20021;-86
2022/04/13 05:35:56;;;;;;;17.83;2.90;;;;;;;;;;2075168;28;20491;-83
2022/04/13 05:37:15;;;;;;;10.90;2.20;;;;;;;;;;2071592;28;20079;-84
2022/04/13 05:38:36;;;;;;;12.75;4.13;;;;;;;;;;2071455;28;20122;-82
2022/04/13 05:39:54;;;;;;;12.65;3.13;;;;;;;;;;2071933;28;20034;-81
2022/04/13 05:41:13;;;;;;;12.57;4.60;;;;;;;;;;2077087;28;20529;-81
2022/04/13 05:42:32;;;;;;;11.20;2.28;;;;;;;;;;2071486;28;20030;-82
2022/04/13 05:43:51;;;;;;;13.55;3.47;;;;;;;;;;2077008;28;20120;-82
2022/04/13 05:45:11;;;;;;;18.83;8.27;;;;;;;;;;2073340;28;20030;-81
2022/04/13 05:46:30;;;;;;;11.23;3.03;;;;;;;;;;2069364;28;20030;-81
2022/04/13 05:47:49;;;;;;;13.10;5.35;;;;;;;;;;2078291;28;20025;-81
2022/04/13 05:49:08;;;;;;;17.27;3.30;;;;;;;;;;2071440;28;20030;-82
2022/04/13 05:50:27;;;;;;;13.95;2.92;;;;;;;;;;2070630;28;20097;-82
2022/04/13 05:51:47;;;;;;;10.02;2.20;;;;;;;;;;2069358;28;20527;-81
2022/04/13 05:53:05;;;;;;;15.40;2.65;;;;;;;;;;2079107;28;20029;-84
2022/04/13 05:54:24;;;;;;;11.18;2.25;;;;;;;;;;2079940;28;20154;-83
2022/04/13 05:55:44;;;;;;;14.55;2.03;;;;;;;;;;2074533;28;20481;-83
2022/04/13 05:57:04;;;;;;;18.02;2.58;;;;;;;;;;2073321;28;20018;-84
2022/04/13 05:58:26;;;;;;;14.75;2.83;;;;;;;;;;2080105;28;20022;-82
2022/04/13 05:59:45;;;;;;;12.18;2.53;;;;;;;;;;2081882;28;20050;-82
2022/04/13 06:01:05;;;;;;;19.52;2.30;;;;;;;;;;2077561;28;20033;-82
2022/04/13 06:02:27;;;;;;;9.75;2.15;;;;;;;;;;2071186;28;20100;-82
2022/04/13 06:03:45;;;;;;;22.88;2.95;;;;;;;;;;2079280;28;20034;-82
2022/04/13 06:05:05;;;;;;;23.35;2.83;;;;;;;;;;2072822;28;20034;-82
2022/04/13 06:06:33;;;;;;;21.77;2.70;;;;;;;;;;2079503;28;20033;-83
2022/04/13 06:07:54;;;;;;;17.40;4.25;;;;;;;;;;2074615;28;20026;-82
2022/04/13 06:09:13;;;;;;;26.17;9.45;;;;;;;;;;2074808;28;20022;-82
2022/04/13 06:10:33;;;;;;;20.98;5.38;;;;;;;;;;2074681;28;20484;-82
2022/04/13 06:11:53;;;;;;;15.30;2.80;;;;;;;;;;2078638;28;20021;-82
2022/04/13 06:13:15;;;;;;;23.60;2.90;;;;;;;;;;2081488;28;20060;-81
2022/04/13 06:14:35;;;;;;;14.75;2.55;;;;;;;;;;2071572;28;20049;-81
2022/04/13 06:15:54;;;;;;;7.47;2.25;;;;;;;;;;2073411;28;20033;-83
2022/04/13 06:17:13;;;;;;;21.23;2.55;;;;;;;;;;2070417;28;20026;-83
2022/04/13 06:18:34;;;;;;;21.45;2.60;;;;;;;;;;2068564;28;20022;-82
2022/04/13 06:19:53;;;;;;;16.05;2.30;;;;;;;;;;2073359;28;20026;-83
2022/04/13 06:21:12;;;;;;;11.68;2.47;;;;;;;;;;2070600;28;20026;-81
2022/04/13 06:22:33;;;;;;;18.88;2.35;;;;;;;;;;2068995;28;20022;-83
2022/04/13 06:23:52;;;;;;;17.90;1.98;;;;;;;;;;2079502;28;20108;-82
2022/04/13 06:25:12;;;;;;;13.80;1.70;;;;;;;;;;2073930;28;20410;-82
2022/04/13 06:26:30;;;;;;;18.27;2.00;;;;;;;;;;2079506;28;20037;-82
2022/04/13 06:27:50;;;;;;;12.13;2.50;;;;;;;;;;2074676;28;20029;-82
2022/04/13 06:29:09;;;;;;;9.48;1.90;;;;;;;;;;2070172;28;20034;-82
2022/04/13 06:30:28;;;;;;;15.95;2.40;;;;;;;;;;2072378;28;20207;-82
2022/04/13 06:31:47;;;;;;;18.15;1.88;;;;;;;;;;2079272;28;20425;-82
2022/04/13 06:33:06;;;;;;;16.70;3.50;;;;;;;;;;2076514;28;20677;-81
2022/04/13 06:34:25;;;;;;;19.23;2.38;;;;;;;;;;2078688;28;20422;-81
2022/04/13 06:35:44;;;;;;;16.27;2.40;;;;;;;;;;2074859;28;20613;-84
2022/04/13 06:37:04;;;;;;;13.60;2.17;;;;;;;;;;2073147;28;20117;-81
2022/04/13 06:38:23;;;;;;;17.65;1.90;;;;;;;;;;2069156;28;20030;-81
2022/04/13 06:39:42;;;;;;;15.55;2.35;;;;;;;;;;2069837;28;20030;-81
2022/04/13 06:41:01;;;;;;;15.60;2.60;;;;;;;;;;2070360;28;20121;-81
2022/04/13 06:42:22;;;;;;;8.48;1.88;;;;;;;;;;2073244;28;20034;-81
2022/04/13 06:43:41;;;;;;;10.85;1.92;;;;;;;;;;2070901;28;20033;-81
2022/04/13 06:45:02;;;;;;;17.15;1.92;;;;;;;;;;2069148;28;20034;-80
2022/04/13 06:46:22;;;;;;;16.80;2.15;;;;;;;;;;2079891;28;20495;-81
2022/04/13 06:47:41;;;;;;;12.95;2.05;;;;;;;;;;2081916;28;20116;-81
2022/04/13 06:48:59;;;;;;;10.48;2.60;;;;;;;;;;2083483;28;20053;-82
2022/04/13 06:50:18;;;;;;;16.50;2.28;;;;;;;;;;2073520;28;20066;-81
2022/04/13 06:51:37;;;;;;;7.40;1.73;;;;;;;;;;2079086;28;20066;-83
2022/04/13 06:52:56;;;;;;;17.45;1.98;;;;;;;;;;2082314;28;20029;-82
2022/04/13 06:54:15;;;;;;;9.18;1.83;;;;;;;;;;2076714;28;20061;-81
2022/04/13 06:55:37;;;;;;;8.45;1.75;;;;;;;;;;2079285;28;20483;-80
2022/04/13 06:56:56;;;;;;;13.77;3.58;;;;;;;;;;2081486;28;20017;-81
2022/04/13 06:58:15;;;;;;;16.45;3.60;;;;;;;;;;2082595;28;20034;-82
2022/04/13 06:59:35;;;;;;;26.23;6.80;;;;;;;;;;2079933;28;20077;-81
2022/04/13 07:00:57;;;;;;;23.23;5.65;;;;;;;;;;2073811;28;20030;-81
2022/04/13 07:02:16;;;;;;;16.58;3.95;;;;;;;;;;2078939;28;20112;-82
2022/04/13 07:03:37;;;;;;;14.20;2.80;;;;;;;;;;2082095;28;20083;-82
2022/04/13 07:04:58;;;;;;;12.93;2.22;;;;;;;;;;2071765;28;20042;-82
2022/04/13 07:06:17;;;;;;;14.63;2.35;;;;;;;;;;2079587;28;20026;-80
2022/04/13 07:07:36;;;;;;;19.35;1.88;;;;;;;;;;2081771;28;20059;-81
2022/04/13 07:08:55;;;;;;;8.65;1.90;;;;;;;;;;2081723;28;20021;-81
2022/04/13 07:10:14;;;;;;;12.93;2.45;;;;;;;;;;2073998;28;20471;-81
2022/04/13 07:11:33;;;;;;;18.92;2.20;;;;;;;;;;2079705;28;20034;-81
2022/04/13 07:12:52;;;;;;;16.63;2.08;;;;;;;;;;2080571;28;20029;-81
2022/04/13 07:14:11;;;;;;;14.70;2.03;;;;;;;;;;2082115;28;20026;-82
2022/04/13 07:15:30;;;;;;;14.13;2.20;;;;;;;;;;2074193;28;20026;-81
2022/04/13 07:16:49;;;;;;;13.45;1.95;;;;;;;;;;2070703;28;20429;-81
2022/04/13 07:18:09;;;;;;;16.38;2.25;;;;;;;;;;2077250;28;20421;-81
2022/04/13 07:19:27;;;;;;;14.35;2.08;;;;;;;;;;2082276;28;20133;-82
2022/04/13 07:20:46;;;;;;;10.70;2.15;;;;;;;;;;2081322;28;20040;-81
2022/04/13 07:22:05;;;;;;;10.38;1.60;;;;;;;;;;2073188;28;20030;-82
2022/04/13 07:23:24;;;;;;;12.25;2.17;;;;;;;;;;2078515;28;20034;-82
2022/04/13 07:24:43;;;;;;;12.38;2.17;;;;;;;;;;2081696;28;20029;-81
2022/04/13 07:26:02;;;;;;;21.20;2.03;;;;;;;;;;2081030;28;20068;-81
2022/04/13 07:27:21;;;;;;;17.42;2.38;;;;;;;;;;2077529;28;20038;-82
2022/04/13 07:28:40;;;;;;;9.25;1.80;;;;;;;;;;2069942;28;20034;-82
2022/04/13 07:29:59;;;;;;;12.65;2.10;;;;;;;;;;2077717;28;20441;-81
2022/04/13 07:31:19;;;;;;;13.30;1.80;;;;;;;;;;2082509;28;20399;-82
2022/04/13 07:32:38;;;;;;;13.23;1.80;;;;;;;;;;2081549;28;20053;-82
2022/04/13 07:33:57;;;;;;;14.27;1.80;;;;;;;;;;2075442;28;20084;-82
2022/04/13 07:35:18;;;;;;;12.52;1.83;;;;;;;;;;2074205;28;20037;-81
2022/04/13 07:36:37;;;;;;;14.93;2.63;;;;;;;;;;2079462;28;20025;-81
2022/04/13 07:37:57;;;;;;;10.75;1.88;;;;;;;;;;2086536;28;20017;-81
2022/04/13 07:39:15;;;;;;;14.30;1.58;;;;;;;;;;2082261;28;20033;-81
2022/04/13 07:40:36;;;;;;;14.98;2.72;;;;;;;;;;2085724;28;20041;-81
2022/04/13 07:41:55;;;;;;;14.40;2.25;;;;;;;;;;2082247;28;20029;-81
2022/04/13 07:43:15;;;;;;;15.63;2.08;;;;;;;;;;2081635;28;20104;-81
2022/04/13 07:44:34;;;;;;;10.48;3.72;;;;;;;;;;2082927;28;20057;-81
2022/04/13 07:45:56;;;;;;;18.63;3.20;;;;;;;;;;2077159;28;20025;-81
2022/04/13 07:47:15;;;;;;;13.07;2.33;;;;;;;;;;2087455;28;20029;-81
2022/04/13 07:48:34;;;;;;;12.15;2.70;;;;;;;;;;2081225;28;20033;-81
2022/04/13 07:49:54;;;;;;;14.02;2.88;;;;;;;;;;2079305;28;20471;-82
2022/04/13 07:51:12;;;;;;;14.32;2.15;;;;;;;;;;2086043;28;20029;-82
2022/04/13 07:52:32;;;;;;;13.70;1.90;;;;;;;;;;2090249;28;20017;-81